Time;durP1;ratioP1;P1;durP2;ratioP2;P2;SDS_P1;SDS_P2;PMS_P1;PMS_P2;Temp;Humidity;BMP_temperature;BMP_pressure;BME280_temperature;BME280_humidity;BME280_pressure;Samples;Min_cycle;Max_cycle;Signal;HPM_P1;HPM_P2
2021/09/03 00:00:37;;;;;;;;;17.20;15.20;;;;;19.63;52.46;99451.13;6160577;28;97531;-64
2021/09/03 00:03:41;;;;;;;;;20.00;14.40;;;;;19.56;52.78;99451.38;6132200;28;98677;-64
2021/09/03 00:06:44;;;;;;;;;16.75;14.25;;;;;19.53;52.54;99440.16;6163958;28;96715;-63
2021/09/03 00:09:47;;;;;;;;;14.20;13.80;;;;;19.51;52.66;99448.63;6139776;28;98919;-63
2021/09/03 00:12:50;;;;;;;;;15.00;14.40;;;;;19.45;52.87;99445.03;6144534;28;98562;-64
2021/09/03 00:15:55;;;;;;;;;17.00;15.00;;;;;19.48;52.84;99448.34;6156692;28;98129;-64
2021/09/03 00:18:59;;;;;;;;;13.00;12.00;;;;;19.42;53.00;99444.72;6134729;28;97747;-63
2021/09/03 00:22:04;;;;;;;;;15.80;15.60;;;;;19.32;53.13;99444.66;6159896;28;97179;-63
2021/09/03 00:25:09;;;;;;;;;16.00;13.60;;;;;19.02;52.90;99380.53;6162275;28;97632;-62
2021/09/03 00:28:12;;;;;;;;;14.00;13.25;;;;;19.39;52.94;99439.78;6144275;28;97168;-63
2021/09/03 00:31:17;;;;;;;;;16.40;13.40;;;;;19.39;52.99;99437.88;6160511;28;96694;-63
2021/09/03 00:34:21;;;;;;;;;14.00;12.40;;;;;19.30;53.05;99436.72;6160759;28;97078;-64
2021/09/03 00:37:24;;;;;;;;;12.00;11.00;;;;;19.31;52.85;99441.09;6144561;28;96840;-63
2021/09/03 00:40:27;;;;;;;;;16.00;15.40;;;;;19.29;52.92;99432.34;6146569;28;96665;-64
2021/09/03 00:43:31;;;;;;;;;15.00;14.00;;;;;19.28;53.32;99436.16;6161133;28;97421;-64
2021/09/03 00:46:36;;;;;;;;;16.00;15.00;;;;;19.28;53.17;99424.41;6128250;28;97403;-64
2021/09/03 00:49:39;;;;;;;;;14.50;14.00;;;;;19.28;53.64;99427.97;6164587;28;96705;-63
2021/09/03 00:52:42;;;;;;;;;16.00;14.00;;;;;19.31;53.66;99426.59;6143667;28;97442;-64
2021/09/03 00:55:46;;;;;;;;;16.40;14.20;;;;;19.30;53.38;99424.97;6146518;28;96640;-63
2021/09/03 00:58:49;;;;;;;;;16.00;14.00;;;;;19.32;53.16;99428.25;6163921;28;97550;-65
2021/09/03 01:01:54;;;;;;;;;18.00;16.00;;;;;19.33;53.09;99428.00;6165576;28;96788;-62
2021/09/03 01:04:58;;;;;;;;;16.80;15.20;;;;;19.34;52.98;99431.56;6149612;28;98186;-63
2021/09/03 01:08:01;;;;;;;;;17.00;16.00;;;;;19.36;52.88;99429.38;6164951;28;96800;-64
2021/09/03 01:11:05;;;;;;;;;17.50;15.00;;;;;18.92;53.21;99355.06;6167040;28;97449;-62
2021/09/03 01:14:08;;;;;;;;;17.40;15.00;;;;;19.32;52.86;99428.25;6127244;28;96795;-63
2021/09/03 01:17:13;;;;;;;;;16.00;13.00;;;;;19.29;52.82;99421.41;6168346;28;97090;-63
2021/09/03 01:20:16;;;;;;;;;17.00;15.60;;;;;19.23;53.09;99422.47;6165910;28;96305;-64
2021/09/03 01:23:22;;;;;;;;;14.00;14.00;;;;;19.16;53.12;99401.91;6152697;28;97817;-64
2021/09/03 01:26:26;;;;;;;;;17.60;16.00;;;;;19.23;53.19;99417.00;6161093;28;96785;-63
2021/09/03 01:29:29;;;;;;;;;16.75;15.25;;;;;19.19;53.31;99412.34;6147792;28;97556;-63
2021/09/03 01:32:32;;;;;;;;;16.20;15.00;;;;;19.16;53.47;99404.66;6168511;28;97508;-64
2021/09/03 01:35:35;;;;;;;;;18.00;17.00;;;;;18.91;53.33;99369.81;6131631;28;97193;-63
2021/09/03 01:38:42;;;;;;;;;16.50;15.50;;;;;19.10;53.67;99398.34;6169438;28;97353;-64
2021/09/03 01:41:45;;;;;;;;;17.60;14.60;;;;;19.08;53.87;99399.69;6147970;28;99719;-65
2021/09/03 01:44:48;;;;;;;;;17.00;16.00;;;;;18.96;53.83;99403.44;6170385;28;97459;-63
2021/09/03 01:47:51;;;;;;;;;18.00;15.20;;;;;18.90;53.98;99395.50;6159295;28;96837;-64
2021/09/03 01:50:55;;;;;;;;;17.60;17.00;;;;;18.87;54.06;99394.09;6165607;28;97016;-62
2021/09/03 01:54:00;;;;;;;;;18.00;16.50;;;;;18.85;54.38;99393.56;6137170;28;96847;-65
2021/09/03 01:57:03;;;;;;;;;17.00;15.75;;;;;18.75;54.08;99368.06;6163259;28;97400;-63
2021/09/03 02:00:08;;;;;;;;;16.20;14.60;;;;;18.94;54.25;99389.25;6161278;28;96629;-64
2021/09/03 02:03:14;;;;;;;;;11.80;11.00;;;;;18.49;54.20;99299.59;6123185;28;97801;-63
2021/09/03 02:06:18;;;;;;;;;15.00;14.00;;;;;18.95;54.00;99370.94;6163652;28;97378;-63
2021/09/03 02:09:23;;;;;;;;;14.00;13.60;;;;;18.87;54.19;99363.22;6164069;28;96811;-64
2021/09/03 02:12:26;;;;;;;;;18.00;16.00;;;;;18.95;53.76;99368.19;6145576;28;97887;-64
2021/09/03 02:15:32;;;;;;;;;16.40;14.00;;;;;18.96;54.31;99362.44;6152108;28;97246;-64
2021/09/03 02:18:36;;;;;;;;;16.00;16.00;;;;;19.02;53.88;99361.41;6160450;28;100175;-64
2021/09/03 02:21:41;;;;;;;;;15.50;14.00;;;;;19.08;53.39;99358.69;6145437;28;96817;-64
2021/09/03 02:24:45;;;;;;;;;17.00;12.60;;;;;19.07;53.22;99357.03;6171156;28;97117;-64
2021/09/03 02:27:49;;;;;;;;;16.00;15.00;;;;;19.08;53.17;99348.59;6167947;28;97482;-64
2021/09/03 02:30:54;;;;;;;;;14.60;13.00;;;;;18.63;53.30;99266.38;6167003;28;96771;-62
2021/09/03 02:33:58;;;;;;;;;16.00;14.00;;;;;19.02;53.24;99347.75;6146885;28;99649;-64
2021/09/03 02:37:01;;;;;;;;;15.60;14.60;;;;;19.00;53.65;99343.66;6163092;28;97545;-63
2021/09/03 02:40:07;;;;;;;;;15.20;14.00;;;;;18.75;53.66;99306.06;6167749;28;97429;-62
2021/09/03 02:43:11;;;;;;;;;14.60;14.00;;;;;18.91;53.50;99324.16;6137161;28;98145;-64
2021/09/03 02:46:14;;;;;;;;;15.00;14.00;;;;;18.50;53.30;99263.03;6139921;28;98622;-63
2021/09/03 02:49:17;;;;;;;;;14.00;12.60;;;;;18.97;53.16;99325.03;6155928;28;96808;-64
2021/09/03 02:52:21;;;;;;;;;17.80;15.20;;;;;18.95;53.26;99319.84;6148432;28;96684;-63
2021/09/03 02:55:26;;;;;;;;;17.00;14.00;;;;;18.97;52.83;99325.03;6168349;28;96497;-63
2021/09/03 02:58:29;;;;;;;;;16.75;14.00;;;;;18.96;53.10;99326.94;6169466;28;96861;-64
2021/09/03 03:01:33;;;;;;;;;15.80;13.80;;;;;18.92;53.09;99320.34;6145675;28;96998;-63
2021/09/03 03:04:37;;;;;;;;;15.00;14.00;;;;;18.89;53.29;99320.91;6164906;28;97441;-63
2021/09/03 03:07:40;;;;;;;;;16.00;14.00;;;;;18.79;53.20;99322.75;6147515;28;96660;-62
2021/09/03 03:10:45;;;;;;;;;16.00;14.50;;;;;18.77;53.34;99322.19;6127722;28;97196;-63
2021/09/03 03:13:49;;;;;;;;;18.00;16.40;;;;;18.76;53.35;99332.31;6126206;28;100000;-63
2021/09/03 03:16:53;;;;;;;;;17.00;16.00;;;;;18.69;53.35;99325.41;6135931;28;96905;-63
2021/09/03 03:19:56;;;;;;;;;17.40;16.40;;;;;18.62;53.49;99324.84;6138864;28;98015;-64
2021/09/03 03:22:59;;;;;;;;;15.50;13.50;;;;;18.60;53.78;99328.66;6120844;28;97809;-64
2021/09/03 03:26:04;;;;;;;;;15.25;14.00;;;;;18.54;53.57;99323.41;6139486;28;97464;-64
2021/09/03 03:29:07;;;;;;;;;15.50;13.50;;;;;18.52;53.73;99331.03;6140258;28;97248;-64
2021/09/03 03:32:11;;;;;;;;;15.00;14.00;;;;;18.41;54.04;99318.38;6134142;28;97393;-63
2021/09/03 03:35:14;;;;;;;;;16.00;14.00;;;;;18.42;53.90;99325.50;6137731;28;97589;-64
2021/09/03 03:38:17;;;;;;;;;18.75;16.00;;;;;18.37;54.26;99328.19;6137061;28;97591;-63
2021/09/03 03:41:29;;;;;;;;;14.50;12.50;;;;;18.38;54.41;99319.72;6134463;28;97490;-64
2021/09/03 03:44:33;;;;;;;;;16.00;15.00;;;;;18.34;54.28;99307.69;6118755;28;98101;-64
2021/09/03 03:47:36;;;;;;;;;14.00;13.00;;;;;17.93;54.38;99259.34;6127635;28;98290;-63
2021/09/03 03:50:39;;;;;;;;;14.50;13.00;;;;;18.40;54.22;99316.72;6121426;28;97629;-64
2021/09/03 03:53:43;;;;;;;;;16.60;13.80;;;;;18.29;54.57;99317.72;6132253;28;96786;-63
2021/09/03 03:56:48;;;;;;;;;16.00;15.00;;;;;18.31;54.63;99315.56;6115016;28;96880;-63
2021/09/03 03:59:51;;;;;;;;;13.80;13.40;;;;;18.27;54.69;99322.66;6138772;28;97684;-63
2021/09/03 04:02:55;;;;;;;;;15.60;14.60;;;;;18.24;54.90;99318.50;6134261;28;97471;-64
2021/09/03 04:05:59;;;;;;;;;16.00;14.00;;;;;18.29;55.05;99324.00;6129467;28;98106;-64
2021/09/03 04:09:02;;;;;;;;;15.60;12.60;;;;;18.33;55.07;99319.66;6135904;28;97251;-64
2021/09/03 04:12:08;;;;;;;;;14.20;13.00;;;;;18.41;54.56;99319.22;6133444;28;97478;-63
2021/09/03 04:15:12;;;;;;;;;18.00;17.00;;;;;18.48;54.54;99321.69;6121671;28;97000;-64
2021/09/03 04:18:17;;;;;;;;;15.60;14.60;;;;;18.54;54.75;99318.78;6103330;28;99494;-63
2021/09/03 04:21:20;;;;;;;;;18.00;16.00;;;;;18.40;54.87;99292.16;6137719;28;96660;-63
2021/09/03 04:24:23;;;;;;;;;17.50;15.50;;;;;18.32;54.57;99276.28;6121585;28;96822;-63
2021/09/03 04:27:28;;;;;;;;;15.00;14.25;;;;;17.92;54.49;99205.84;6121298;28;97201;-63
2021/09/03 04:30:31;;;;;;;;;18.40;15.40;;;;;18.69;54.48;99311.75;6138452;28;97068;-66
2021/09/03 04:33:35;;;;;;;;;13.50;13.50;;;;;18.68;54.14;99310.94;6135701;28;97442;-63
2021/09/03 04:36:38;;;;;;;;;15.40;15.00;;;;;18.67;54.02;99311.22;6125852;28;97537;-63
2021/09/03 04:39:41;;;;;;;;;15.00;14.00;;;;;18.67;54.08;99311.22;6121565;28;98633;-63
2021/09/03 04:42:46;;;;;;;;;14.00;13.00;;;;;18.58;54.13;99302.69;6137451;28;97330;-64
2021/09/03 04:45:50;;;;;;;;;18.75;17.00;;;;;18.56;54.57;99310.34;6103600;28;99496;-63
2021/09/03 04:48:53;;;;;;;;;19.00;17.80;;;;;18.57;54.65;99317.41;6125822;28;97704;-65
2021/09/03 04:51:58;;;;;;;;;18.00;17.00;;;;;18.42;54.76;99281.81;6161085;28;96593;-63
2021/09/03 04:55:01;;;;;;;;;18.00;17.40;;;;;18.63;54.64;99312.81;6118479;28;97203;-63
2021/09/03 04:58:06;;;;;;;;;19.20;17.00;;;;;18.65;54.56;99316.13;6139409;28;97161;-64
2021/09/03 05:01:10;;;;;;;;;17.00;17.00;;;;;18.68;54.61;99310.09;6122648;28;96880;-63
2021/09/03 05:04:13;;;;;;;;;19.20;17.60;;;;;18.68;54.76;99318.31;6143849;28;97196;-64
2021/09/03 05:07:16;;;;;;;;;18.00;17.00;;;;;18.75;54.81;99314.28;6140706;28;96906;-63
2021/09/03 05:10:20;;;;;;;;;20.00;18.00;;;;;18.77;54.54;99306.63;6154326;28;97128;-64
2021/09/03 05:13:24;;;;;;;;;19.00;16.00;;;;;18.77;55.01;99311.25;6143676;28;97191;-63
2021/09/03 05:16:27;;;;;;;;;18.00;17.00;;;;;18.80;54.65;99303.38;6170138;28;97483;-64
2021/09/03 05:19:31;;;;;;;;;22.60;19.00;;;;;18.79;54.86;99290.78;6146131;28;97441;-66
2021/09/03 05:22:35;;;;;;;;;20.60;17.60;;;;;18.80;54.60;99291.63;6160337;28;97217;-64
2021/09/03 05:25:38;;;;;;;;;20.00;18.00;;;;;18.83;54.41;99291.06;6164906;28;97409;-62
2021/09/03 05:28:43;;;;;;;;;20.60;19.00;;;;;18.86;54.54;99296.81;6143776;28;96812;-64
2021/09/03 05:31:46;;;;;;;;;17.20;16.20;;;;;18.78;54.94;99288.31;6161150;28;97587;-64
2021/09/03 05:34:50;;;;;;;;;20.80;19.00;;;;;18.81;55.13;99293.28;6138325;28;99764;-64
2021/09/03 05:37:53;;;;;;;;;22.40;19.00;;;;;18.68;55.17;99291.00;6157807;28;96606;-63
2021/09/03 05:40:57;;;;;;;;;20.00;19.00;;;;;18.85;55.25;99292.47;6165867;28;96799;-64
2021/09/03 05:44:02;;;;;;;;;20.67;18.00;;;;;19.02;55.24;99298.56;6164248;28;97156;-63
2021/09/03 05:47:06;;;;;;;;;22.00;21.00;;;;;19.26;54.59;99296.19;6166315;28;97548;-61
2021/09/03 05:50:10;;;;;;;;;22.80;20.40;;;;;19.41;54.38;99301.69;6148113;28;96891;-65
2021/09/03 05:53:14;;;;;;;;;19.00;18.00;;;;;19.55;54.17;99299.28;6136267;28;97756;-65
2021/09/03 05:56:17;;;;;;;;;21.75;20.00;;;;;19.69;54.10;99299.63;6165217;28;97836;-65
2021/09/03 05:59:22;;;;;;;;;21.00;19.00;;;;;19.80;53.88;99301.25;6164092;28;97743;-64
2021/09/03 06:02:26;;;;;;;;;21.00;20.00;;;;;19.86;53.99;99295.53;6164715;28;97694;-65
2021/09/03 06:05:30;;;;;;;;;22.00;21.00;;;;;20.04;53.78;99294.16;6162563;28;97568;-64
2021/09/03 06:08:33;;;;;;;;;22.00;21.60;;;;;20.25;53.69;99298.56;6172341;28;96903;-63
2021/09/03 06:11:36;;;;;;;;;23.33;20.33;;;;;20.51;52.84;99304.88;6149830;28;96714;-63
2021/09/03 06:14:41;;;;;;;;;21.40;18.80;;;;;20.66;52.56;99296.63;6165080;28;96643;-63
2021/09/03 06:17:44;;;;;;;;;22.80;21.80;;;;;20.78;51.82;99299.03;6149324;28;97542;-64
2021/09/03 06:20:47;;;;;;;;;22.60;20.00;;;;;20.90;52.24;99291.34;6145780;28;97686;-64
2021/09/03 06:23:51;;;;;;;;;25.80;22.00;;;;;21.08;51.48;99298.94;6167971;28;97471;-61
2021/09/03 06:26:54;;;;;;;;;22.40;20.00;;;;;21.27;51.33;99298.34;6164292;28;96698;-63
2021/09/03 06:29:59;;;;;;;;;19.60;19.00;;;;;21.36;50.64;99302.13;6164648;28;97187;-62
2021/09/03 06:33:02;;;;;;;;;21.50;20.50;;;;;21.56;50.62;99297.38;6156998;28;97105;-63
2021/09/03 06:36:06;;;;;;;;;25.00;21.00;;;;;21.81;49.79;99303.78;6146457;28;97548;-65
2021/09/03 06:39:09;;;;;;;;;22.40;21.00;;;;;21.94;49.47;99298.50;6151412;28;97493;-63
2021/09/03 06:42:13;;;;;;;;;23.25;21.00;;;;;22.25;49.13;99303.75;6164518;28;97486;-64
2021/09/03 06:45:18;;;;;;;;;20.00;18.00;;;;;22.36;47.60;99299.81;6170425;28;97438;-63
2021/09/03 06:48:23;;;;;;;;;15.80;13.60;;;;;22.62;47.14;99297.66;6166604;28;97443;-62
2021/09/03 06:51:26;;;;;;;;;17.20;15.00;;;;;22.70;46.15;99297.88;6152658;28;97413;-62
2021/09/03 06:54:31;;;;;;;;;16.80;16.00;;;;;22.95;46.18;99295.94;6165643;28;97434;-62
2021/09/03 06:57:34;;;;;;;;;16.00;14.00;;;;;23.13;45.59;99286.91;6151263;28;98517;-64
2021/09/03 07:00:39;;;;;;;;;14.00;13.00;;;;;23.27;45.30;99285.09;6159542;28;97334;-62
2021/09/03 07:03:43;;;;;;;;;14.00;13.20;;;;;23.35;45.05;99289.13;6176301;28;96540;-64
2021/09/03 07:06:47;;;;;;;;;13.00;13.00;;;;;23.44;44.57;99290.09;6163200;28;97384;-62
2021/09/03 07:09:50;;;;;;;;;16.00;15.00;;;;;23.59;44.39;99292.69;6164118;28;96825;-60
2021/09/03 07:12:53;;;;;;;;;15.00;14.00;;;;;23.63;44.45;99275.25;6163189;28;96476;-65
2021/09/03 07:15:58;;;;;;;;;15.00;14.00;;;;;23.74;44.42;99282.28;6169745;28;97483;-64
2021/09/03 07:19:03;;;;;;;;;14.00;12.40;;;;;24.00;44.37;99287.34;6182663;28;97406;-62
2021/09/03 07:22:06;;;;;;;;;14.60;13.60;;;;;24.16;44.06;99288.75;6171645;28;96690;-66
2021/09/03 07:25:11;;;;;;;;;15.00;14.00;;;;;24.25;43.57;99275.13;6188210;28;97506;-64
2021/09/03 07:28:14;;;;;;;;;14.50;13.00;;;;;24.56;43.50;99276.22;6156790;28;97456;-65
2021/09/03 07:31:19;;;;;;;;;16.50;15.50;;;;;24.77;43.17;99274.75;6179486;28;97959;-62
2021/09/03 07:34:22;;;;;;;;;14.00;13.00;;;;;24.84;42.50;99275.13;6169685;28;97789;-63
2021/09/03 07:37:25;;;;;;;;;16.40;15.40;;;;;24.94;42.00;99280.47;6187493;28;97449;-64
2021/09/03 07:40:29;;;;;;;;;14.50;12.50;;;;;25.17;41.69;99267.59;6187868;28;97161;-64
2021/09/03 07:43:32;;;;;;;;;15.00;13.40;;;;;25.37;41.45;99277.38;6189392;28;97449;-63
2021/09/03 07:46:37;;;;;;;;;15.50;13.00;;;;;25.53;41.36;99280.63;6188419;28;97364;-63
2021/09/03 07:49:40;;;;;;;;;13.50;13.00;;;;;25.56;40.78;99285.56;6187443;28;97539;-64
2021/09/03 07:52:43;;;;;;;;;11.60;11.00;;;;;25.82;40.77;99275.56;6187542;28;97535;-66
2021/09/03 07:56:06;;;;;;;;;13.40;11.40;;;;;25.91;40.49;99281.97;6168697;28;97734;-63
2021/09/03 07:59:10;;;;;;;;;12.75;11.00;;;;;26.10;39.90;99279.00;6189047;28;97490;-62
2021/09/03 08:02:15;;;;;;;;;11.25;10.25;;;;;26.29;39.75;99279.69;6165215;28;97258;-65
2021/09/03 08:05:19;;;;;;;;;11.50;10.75;;;;;26.59;39.32;99272.50;6162718;28;96514;-62
2021/09/03 08:08:22;;;;;;;;;12.40;11.00;;;;;26.92;37.98;99273.03;6188637;28;96966;-63
2021/09/03 08:11:26;;;;;;;;;12.60;12.60;;;;;27.05;38.54;99263.81;6188494;28;97180;-63
2021/09/03 08:14:29;;;;;;;;;12.20;10.80;;;;;27.34;37.76;99260.44;6185495;28;96613;-63
2021/09/03 08:17:34;;;;;;;;;10.00;9.20;;;;;27.46;37.50;99266.19;6186344;28;97481;-64
2021/09/03 08:20:38;;;;;;;;;13.00;12.00;;;;;27.35;37.14;99221.38;6183285;28;97465;-62
2021/09/03 08:23:41;;;;;;;;;10.60;10.00;;;;;27.90;36.88;99254.00;6183879;28;97424;-61
2021/09/03 08:26:44;;;;;;;;;10.60;9.60;;;;;28.17;36.57;99253.69;6187547;28;96874;-62
2021/09/03 08:29:50;;;;;;;;;13.40;11.40;;;;;28.30;36.73;99263.75;6188596;28;96951;-65
2021/09/03 08:32:55;;;;;;;;;12.80;11.00;;;;;28.39;35.86;99233.25;6187151;28;97637;-63
2021/09/03 08:35:58;;;;;;;;;10.00;9.00;;;;;28.62;35.96;99248.50;6187889;28;96587;-66
2021/09/03 08:39:02;;;;;;;;;10.80;10.00;;;;;28.52;34.86;99229.44;6187468;28;96439;-65
2021/09/03 08:42:06;;;;;;;;;12.00;11.50;;;;;28.83;35.23;99243.06;6168366;28;97830;-66
2021/09/03 08:45:11;;;;;;;;;11.33;10.00;;;;;28.91;35.22;99244.97;6186244;28;97584;-66
2021/09/03 08:48:20;;;;;;;;;12.00;10.40;;;;;29.15;35.08;99239.63;6135714;28;97158;-63
2021/09/03 08:51:23;;;;;;;;;10.00;9.20;;;;;29.18;34.33;99241.72;6177024;28;96646;-68
2021/09/03 08:54:26;;;;;;;;;10.00;8.00;;;;;29.38;34.03;99231.81;6137568;28;99527;-69
2021/09/03 08:57:30;;;;;;;;;9.00;8.00;;;;;29.37;33.80;99207.19;6168246;28;98895;-69
2021/09/03 09:00:35;;;;;;;;;11.00;10.00;;;;;29.48;33.55;99225.06;6183986;28;96458;-63
2021/09/03 09:03:41;;;;;;;;;12.60;11.00;;;;;29.66;33.12;99230.13;6155025;28;98406;-64
2021/09/03 09:07:01;;;;;;;;;10.40;10.40;;;;;29.90;33.49;99201.69;6184443;28;96552;-65
2021/09/03 09:10:07;;;;;;;;;13.00;12.00;;;;;30.49;33.15;99227.25;6168907;28;97967;-66
2021/09/03 09:13:14;;;;;;;;;10.00;9.00;;;;;30.76;31.58;99224.97;6180876;28;96632;-62
2021/09/03 09:16:23;;;;;;;;;11.25;9.25;;;;;30.72;30.71;99222.06;6147784;28;97588;-65
2021/09/03 09:19:28;;;;;;;;;9.00;8.00;;;;;30.72;30.80;99224.84;6180732;28;96770;-63
2021/09/03 09:22:52;;;;;;;;;9.20;8.20;;;;;30.89;31.00;99223.78;6163029;28;97483;-63
2021/09/03 09:25:59;;;;;;;;;9.00;8.00;;;;;31.06;31.27;99220.00;6158403;28;97438;-62
2021/09/03 09:29:13;;;;;;;;;8.00;8.00;;;;;30.75;31.20;99214.97;6160724;28;96575;-64
2021/09/03 09:32:16;;;;;;;;;8.60;7.60;;;;;30.87;30.95;99215.00;6166170;28;97463;-63
2021/09/03 09:35:20;;;;;;;;;10.00;8.60;;;;;30.87;30.68;99215.00;6157854;28;97179;-63
2021/09/03 09:38:26;;;;;;;;;8.00;8.00;;;;;31.10;29.99;99202.25;6171367;28;96503;-64
2021/09/03 09:41:29;;;;;;;;;7.00;7.00;;;;;30.92;30.26;99209.19;6161970;28;99452;-64
2021/09/03 09:44:35;;;;;;;;;10.00;10.00;;;;;31.03;30.56;99201.22;6141159;28;97711;-63
2021/09/03 09:47:42;;;;;;;;;9.80;8.00;;;;;30.79;30.04;99202.81;6145135;28;97226;-62
2021/09/03 09:50:46;;;;;;;;;8.00;8.00;;;;;30.38;30.77;99195.44;6166160;28;97582;-63
2021/09/03 09:53:54;;;;;;;;;8.00;8.00;;;;;30.70;30.99;99190.16;6150284;28;99480;-65
2021/09/03 09:57:00;;;;;;;;;8.00;8.00;;;;;30.98;29.99;99189.09;6179488;28;97505;-64
2021/09/03 10:00:05;;;;;;;;;9.00;8.00;;;;;30.66;29.83;99192.81;6156999;28;97381;-67
2021/09/03 10:03:18;;;;;;;;;9.40;9.00;;;;;30.23;31.07;99181.38;6176972;28;97059;-65
2021/09/03 10:06:25;;;;;;;;;10.00;8.00;;;;;29.92;31.88;99184.66;6175288;28;97374;-63
2021/09/03 10:09:31;;;;;;;;;8.00;8.00;;;;;29.71;31.85;99179.13;6157250;28;96691;-63
2021/09/03 10:12:34;;;;;;;;;9.00;8.40;;;;;29.54;31.47;99187.59;6168340;28;97158;-63
2021/09/03 10:15:37;;;;;;;;;9.00;7.00;;;;;29.50;31.56;99183.88;6170032;28;97661;-62
2021/09/03 10:18:44;;;;;;;;;7.00;7.00;;;;;29.40;31.43;99190.66;6190453;28;96707;-62
2021/09/03 10:21:49;;;;;;;;;9.40;8.00;;;;;29.92;30.32;99185.47;6186853;28;98105;-63
2021/09/03 10:25:06;;;;;;;;;8.00;8.00;;;;;29.59;30.49;99152.06;6177532;28;97033;-64
2021/09/03 10:28:09;;;;;;;;;8.80;7.80;;;;;30.25;30.28;99184.66;6188064;28;97075;-63
2021/09/03 10:31:18;;;;;;;;;8.00;8.00;;;;;30.63;30.09;99171.28;6178933;28;96777;-62
2021/09/03 10:34:57;;;;;;;;;7.50;7.00;;;;;30.66;30.10;99169.75;6156357;28;97389;-63
2021/09/03 10:38:21;;;;;;;;;8.00;7.00;;;;;30.71;29.83;99164.78;6138968;28;97421;-61
2021/09/03 10:41:47;;;;;;;;;9.00;8.00;;;;;30.86;29.61;99161.28;6174304;28;98187;-63
2021/09/03 10:45:07;;;;;;;;;10.00;9.00;;;;;31.11;29.57;99150.16;6147068;28;99130;-63
2021/09/03 10:48:13;;;;;;;;;10.00;8.00;;;;;30.87;29.23;99143.44;6188925;28;98074;-61
2021/09/03 10:51:33;;;;;;;;;7.00;7.00;;;;;31.05;29.63;99148.75;6179344;28;97471;-63
2021/09/03 10:54:38;;;;;;;;;8.20;8.00;;;;;31.60;29.65;99136.91;6175514;28;98189;-63
2021/09/03 10:58:00;;;;;;;;;8.60;7.60;;;;;31.90;27.73;99134.56;6179303;28;97288;-60
2021/09/03 11:01:38;;;;;;;;;8.00;7.40;;;;;32.39;28.39;99143.47;6133497;28;97191;-61
2021/09/03 11:04:45;;;;;;;;;7.50;7.00;;;;;32.15;27.87;99136.88;6159648;28;97099;-61
2021/09/03 11:07:49;;;;;;;;;8.60;7.40;;;;;32.02;26.99;99131.69;6145774;28;97994;-63
2021/09/03 11:10:53;;;;;;;;;10.00;9.00;;;;;32.25;27.15;99129.97;6142490;28;97912;-63
2021/09/03 11:13:58;;;;;;;;;10.00;9.00;;;;;32.31;27.73;99122.09;6147381;28;97640;-63
2021/09/03 11:17:03;;;;;;;;;9.00;7.00;;;;;32.62;27.17;99111.75;6149336;28;97346;-60
2021/09/03 11:20:07;;;;;;;;;7.00;7.00;;;;;32.75;27.06;99120.03;6146942;28;97417;-62
2021/09/03 11:23:11;;;;;;;;;7.00;7.00;;;;;32.51;27.05;99105.09;6146837;28;96661;-63
2021/09/03 11:26:16;;;;;;;;;6.00;6.00;;;;;32.66;27.08;99111.84;6145508;28;96955;-62
2021/09/03 11:29:22;;;;;;;;;8.80;7.80;;;;;32.94;27.13;99115.28;6142575;28;96639;-62
2021/09/03 11:32:40;;;;;;;;;7.00;7.00;;;;;32.91;26.26;99102.06;6144930;28;97472;-64
2021/09/03 11:35:44;;;;;;;;;8.00;7.00;;;;;33.06;26.43;99095.63;6144093;28;96658;-65
2021/09/03 11:38:58;;;;;;;;;8.40;8.00;;;;;33.00;26.35;99099.06;6140013;28;96664;-62
2021/09/03 11:42:03;;;;;;;;;8.00;7.00;;;;;33.06;26.19;99098.44;6154031;28;97462;-61
2021/09/03 11:45:09;;;;;;;;;8.20;7.00;;;;;33.12;26.43;99095.34;6131361;28;99465;-61
2021/09/03 11:48:15;;;;;;;;;9.50;8.00;;;;;33.18;25.79;99094.72;6149594;28;96670;-61
2021/09/03 11:51:22;;;;;;;;;9.75;9.00;;;;;33.33;26.24;99096.63;6140728;28;97498;-63
2021/09/03 11:54:25;;;;;;;;;10.00;9.00;;;;;33.36;26.06;99090.31;6123624;28;96846;-61
2021/09/03 11:57:30;;;;;;;;;10.00;9.40;;;;;33.12;25.84;99084.16;6144381;28;97306;-61
2021/09/03 12:00:35;;;;;;;;;9.00;9.00;;;;;32.67;25.93;99089.16;6138020;28;96780;-61
2021/09/03 12:03:43;;;;;;;;;8.50;7.00;;;;;32.59;26.30;99078.16;6139627;28;97441;-61
2021/09/03 12:06:46;;;;;;;;;9.00;9.00;;;;;32.33;26.69;99072.34;6126677;28;97676;-62
2021/09/03 12:09:55;;;;;;;;;9.00;9.00;;;;;31.91;27.56;99069.25;6145034;28;96664;-62
2021/09/03 12:13:05;;;;;;;;;12.00;11.00;;;;;32.18;27.54;99074.78;6140805;28;97712;-61
2021/09/03 12:16:12;;;;;;;;;9.00;8.75;;;;;32.45;27.29;99073.03;6143972;28;97518;-62
2021/09/03 12:19:16;;;;;;;;;8.50;8.00;;;;;32.45;26.66;99067.44;6141419;28;96937;-62
2021/09/03 12:22:19;;;;;;;;;8.60;7.60;;;;;32.36;27.05;99072.41;6148002;28;98459;-62
2021/09/03 12:25:31;;;;;;;;;8.80;8.80;;;;;32.24;27.86;99064.97;6158329;28;98076;-62
2021/09/03 12:28:37;;;;;;;;;10.00;10.00;;;;;32.12;26.74;99075.41;6158255;28;96498;-63
2021/09/03 12:31:49;;;;;;;;;10.00;9.00;;;;;31.91;26.83;99072.06;6140378;28;98052;-63
2021/09/03 12:34:59;;;;;;;;;9.00;8.60;;;;;31.38;27.75;99071.34;6156481;28;96879;-62
2021/09/03 12:38:03;;;;;;;;;10.00;9.00;;;;;30.93;27.82;99068.84;6160225;28;96736;-62
2021/09/03 12:41:18;;;;;;;;;6.50;6.00;;;;;30.82;27.79;99056.56;6158100;28;96468;-64
2021/09/03 12:44:24;;;;;;;;;8.40;8.00;;;;;30.88;28.19;99058.75;6161876;28;97413;-63
2021/09/03 12:47:28;;;;;;;;;8.00;8.00;;;;;30.64;28.61;99033.75;6141838;28;97586;-61
2021/09/03 12:50:33;;;;;;;;;8.00;8.00;;;;;30.64;28.92;99053.22;6160265;28;97293;-64
2021/09/03 12:53:37;;;;;;;;;7.60;7.00;;;;;30.42;29.24;99042.53;6157271;28;97454;-62
2021/09/03 12:56:41;;;;;;;;;11.00;10.00;;;;;30.40;29.66;99028.97;6148275;28;97475;-63
2021/09/03 12:59:46;;;;;;;;;10.40;9.00;;;;;30.63;28.40;99034.09;6166467;28;96821;-65
2021/09/03 13:02:49;;;;;;;;;8.50;8.50;;;;;30.66;28.73;99025.84;6173801;28;97952;-64
2021/09/03 13:05:53;;;;;;;;;10.00;9.00;;;;;30.84;28.92;99012.44;6160882;28;97297;-61
2021/09/03 13:09:17;;;;;;;;;9.00;8.00;;;;;31.03;28.67;99006.28;6161746;28;97462;-64
2021/09/03 13:12:20;;;;;;;;;10.60;10.00;;;;;31.02;28.09;99011.06;6146881;28;96804;-64
2021/09/03 13:15:25;;;;;;;;;10.00;10.00;;;;;31.01;27.29;99008.59;6144890;28;96710;-63
2021/09/03 13:18:28;;;;;;;;;9.00;8.60;;;;;30.90;27.66;99003.50;6139510;28;97489;-64
2021/09/03 13:21:32;;;;;;;;;9.00;8.50;;;;;30.72;28.16;99015.28;6139738;28;97487;-61
2021/09/03 13:24:35;;;;;;;;;11.00;10.40;;;;;30.76;28.42;99005.06;6139528;28;96822;-61
2021/09/03 13:27:38;;;;;;;;;11.00;10.00;;;;;30.62;28.05;98994.31;6139879;28;97499;-61
2021/09/03 13:30:44;;;;;;;;;10.00;9.00;;;;;30.54;28.25;98996.06;6140097;28;97162;-63
2021/09/03 13:33:49;;;;;;;;;9.00;8.00;;;;;30.60;28.16;98999.41;6140822;28;97510;-61
2021/09/03 13:36:52;;;;;;;;;12.20;10.60;;;;;30.52;28.70;98997.59;6140496;28;97950;-62
2021/09/03 13:39:55;;;;;;;;;9.00;9.00;;;;;30.27;28.75;99005.13;6121990;28;96623;-62
2021/09/03 13:42:59;;;;;;;;;9.00;8.75;;;;;29.89;29.47;98993.53;6140269;28;97506;-62
2021/09/03 13:46:03;;;;;;;;;12.00;9.00;;;;;29.96;29.93;98986.22;6139581;28;96756;-62
2021/09/03 13:49:08;;;;;;;;;10.00;10.00;;;;;30.05;29.59;98983.38;6140417;28;97518;-62
2021/09/03 13:52:12;;;;;;;;;9.20;9.20;;;;;30.27;29.48;98968.16;6140966;28;97480;-62
2021/09/03 13:55:15;;;;;;;;;8.50;7.00;;;;;30.48;29.14;98966.06;6123100;28;96503;-62
2021/09/03 13:58:18;;;;;;;;;11.00;11.00;;;;;30.64;28.93;98968.94;6140800;28;96874;-62
2021/09/03 14:01:23;;;;;;;;;8.00;8.00;;;;;30.57;29.50;98963.16;6139716;28;96568;-64
2021/09/03 14:04:27;;;;;;;;;9.60;9.60;;;;;30.63;28.63;98962.56;6124055;28;97614;-63
2021/09/03 14:07:30;;;;;;;;;10.00;10.00;;;;;30.68;28.25;98955.94;6139638;28;96809;-63
2021/09/03 14:10:33;;;;;;;;;11.00;10.00;;;;;30.80;28.99;98953.91;6138351;28;96724;-62
2021/09/03 14:13:37;;;;;;;;;8.00;8.00;;;;;30.73;29.22;98950.13;6144596;28;97622;-63
2021/09/03 14:16:42;;;;;;;;;10.20;8.20;;;;;30.71;28.67;98952.44;6177451;28;97270;-62